Time;durP1;ratioP1;P1;durP2;ratioP2;P2;SDS_P1;SDS_P2;PMS_P1;PMS_P2;Temp;Humidity;BMP_temperature;BMP_pressure;BME280_temperature;BME280_humidity;BME280_pressure;Samples;Min_cycle;Max_cycle;Signal;HPM_P1;HPM_P2
2022/07/27 00:01:32;;;;;;;;;3.00;1.00;;;;;22.73;46.25;101478.13;5052599;28;45494;-68
2022/07/27 00:03:57;;;;;;;;;1.33;1.33;;;;;22.70;46.43;101471.09;5032132;28;45448;-67
2022/07/27 00:06:23;;;;;;;;;1.67;1.00;;;;;22.71;46.40;101469.28;5049196;28;45687;-69
2022/07/27 00:08:49;;;;;;;;;2.33;1.00;;;;;22.61;46.54;101453.63;5057509;28;45473;-69
2022/07/27 00:11:14;;;;;;;;;1.67;1.67;;;;;22.70;46.43;101468.41;5036767;28;45491;-70
2022/07/27 00:13:40;;;;;;;;;1.00;1.00;;;;;22.67;46.67;101468.53;5053393;28;45681;-68
2022/07/27 00:16:06;;;;;;;;;1.00;1.00;;;;;22.61;46.57;101458.06;5052713;28;45525;-69
2022/07/27 00:18:31;;;;;;;;;1.00;1.00;;;;;22.57;46.73;101453.81;5053192;28;45609;-69
2022/07/27 00:20:57;;;;;;;;;1.00;1.00;;;;;22.57;46.92;101448.47;5054031;28;45500;-68
2022/07/27 00:23:23;;;;;;;;;3.00;1.00;;;;;22.61;47.03;101464.31;5053342;28;45355;-68
2022/07/27 00:25:48;;;;;;;;;2.00;2.00;;;;;22.59;47.07;101458.16;5052705;28;46458;-69
2022/07/27 00:28:14;;;;;;;;;2.00;2.00;;;;;22.56;47.26;101460.06;5052590;28;45812;-68
2022/07/27 00:30:40;;;;;;;;;3.67;1.00;;;;;22.55;47.26;101453.84;5053402;28;45851;-70
2022/07/27 00:33:05;;;;;;;;;2.67;2.67;;;;;22.52;47.30;101461.06;5053233;28;45474;-68
2022/07/27 00:35:31;;;;;;;;;2.67;2.67;;;;;22.40;47.51;101443.72;5052679;28;46372;-68
2022/07/27 00:37:57;;;;;;;;;2.00;2.00;;;;;22.41;47.73;101450.81;5052761;28;45758;-68
2022/07/27 00:40:23;;;;;;;;;1.00;1.00;;;;;22.39;47.77;101450.84;5052686;28;45422;-68
2022/07/27 00:42:48;;;;;;;;;3.00;1.33;;;;;22.36;47.94;101450.97;5053536;28;45315;-69
2022/07/27 00:45:14;;;;;;;;;1.00;1.00;;;;;22.32;47.97;101441.31;5052936;28;46367;-71
2022/07/27 00:47:39;;;;;;;;;2.00;2.00;;;;;22.32;48.08;101452.00;5055757;28;45666;-69
2022/07/27 00:50:05;;;;;;;;;1.33;1.33;;;;;22.37;48.05;101457.16;5053994;28;45799;-68
2022/07/27 00:52:33;;;;;;;;;2.33;2.00;;;;;22.29;48.28;101445.91;5056000;28;45419;-70
2022/07/27 00:54:58;;;;;;;;;3.00;2.00;;;;;22.32;48.36;101457.34;5035412;28;45977;-69
2022/07/27 00:57:26;;;;;;;;;3.00;3.00;;;;;22.30;48.55;101459.19;5049237;28;45571;-69
2022/07/27 00:59:52;;;;;;;;;2.67;2.00;;;;;22.22;48.42;101429.25;5055678;28;45524;-69
2022/07/27 01:02:17;;;;;;;;;2.00;2.00;;;;;22.29;48.42;101440.56;5040383;28;45500;-70
2022/07/27 01:04:43;;;;;;;;;1.00;1.00;;;;;22.28;48.49;101442.38;5018799;28;47637;-71
2022/07/27 01:07:09;;;;;;;;;2.00;2.00;;;;;22.26;48.40;101441.56;5037455;28;45437;-69
2022/07/27 01:12:20;;;;;;;;;2.00;2.00;;;;;22.25;48.81;101441.59;5044812;28;45402;-68
2022/07/27 01:14:50;;;;;;;;;1.00;1.00;;;;;22.13;48.83;101434.88;5042631;28;46016;-69
2022/07/27 01:17:16;;;;;;;;;1.00;1.00;;;;;22.08;48.98;101423.50;5051945;28;45688;-69
2022/07/27 01:19:42;;;;;;;;;2.00;2.00;;;;;22.13;48.90;101429.53;5055886;28;45355;-68
2022/07/27 01:22:08;;;;;;;;;1.00;1.00;;;;;22.16;49.14;101448.09;5053818;28;45476;-69
2022/07/27 01:24:34;;;;;;;;;1.33;0.00;;;;;22.09;49.27;101439.47;5037895;28;45470;-69
2022/07/27 01:27:01;;;;;;;;;2.00;2.00;;;;;22.10;49.43;101443.84;5055825;28;45519;-70
2022/07/27 01:29:27;;;;;;;;;3.00;3.00;;;;;22.06;49.42;101436.88;5050676;28;45536;-69
2022/07/27 01:31:53;;;;;;;;;1.67;1.67;;;;;22.03;49.48;101434.31;5051675;28;45480;-69
2022/07/27 01:34:19;;;;;;;;;2.00;2.00;;;;;22.08;49.40;101439.50;5063715;28;46133;-68
2022/07/27 01:36:47;;;;;;;;;2.33;2.33;;;;;22.02;49.29;101430.78;5063612;28;45421;-68
2022/07/27 01:39:14;;;;;;;;;1.33;1.33;;;;;22.04;49.42;101428.03;5063527;28;45346;-67
2022/07/27 01:41:40;;;;;;;;;2.00;2.00;;;;;21.89;49.75;101412.59;5053620;28;45390;-67
2022/07/27 01:44:05;;;;;;;;;2.00;2.00;;;;;21.99;49.51;101436.22;5053077;28;46032;-68
2022/07/27 01:46:31;;;;;;;;;1.33;1.33;;;;;21.93;49.93;101428.44;5059730;28;45530;-68
2022/07/27 01:48:58;;;;;;;;;2.67;1.00;;;;;21.92;49.49;101431.16;5057245;28;45481;-67
2022/07/27 01:51:24;;;;;;;;;2.00;2.00;;;;;21.88;49.50;101417.06;5057311;28;45292;-69
2022/07/27 01:53:49;;;;;;;;;2.33;2.00;;;;;21.85;49.82;101417.16;5036644;28;45598;-68
2022/07/27 01:56:15;;;;;;;;;2.00;2.00;;;;;21.93;49.78;101432.91;5049581;28;45445;-68
2022/07/27 01:58:42;;;;;;;;;1.33;1.33;;;;;21.81;49.71;101415.53;5058418;28;45622;-69
2022/07/27 02:01:08;;;;;;;;;1.00;1.00;;;;;21.86;49.59;101426.91;5041606;28;45532;-70
2022/07/27 02:03:34;;;;;;;;;2.33;2.00;;;;;21.85;49.84;101430.47;5058158;28;46044;-69
2022/07/27 02:06:01;;;;;;;;;3.00;2.00;;;;;21.85;49.76;101429.63;5055538;28;45942;-67
2022/07/27 02:08:27;;;;;;;;;2.67;2.00;;;;;21.78;49.86;101420.94;5057006;28;45569;-69
2022/07/27 02:13:37;;;;;;;;;2.33;2.00;;;;;21.75;50.05;101413.91;5057408;28;45884;-69
2022/07/27 02:16:02;;;;;;;;;1.67;1.67;;;;;21.64;50.16;101405.44;5057430;28;45367;-70
2022/07/27 02:18:28;;;;;;;;;2.00;2.00;;;;;21.33;50.60;101373.53;5037784;28;45443;-69
2022/07/27 02:20:54;;;;;;;;;3.00;3.00;;;;;21.48;50.96;101410.41;5054820;28;45459;-69
2022/07/27 02:23:19;;;;;;;;;4.00;2.00;;;;;21.23;51.40;101409.41;5055185;28;46469;-68
2022/07/27 02:25:46;;;;;;;;;3.00;3.00;;;;;21.14;51.61;101419.44;5054958;28;45342;-69
2022/07/27 02:28:11;;;;;;;;;3.67;2.00;;;;;20.77;51.92;101376.22;5037073;28;45637;-69
2022/07/27 02:30:37;;;;;;;;;4.00;2.00;;;;;20.93;52.71;101428.97;5055709;28;45525;-68
2022/07/27 02:33:03;;;;;;;;;3.00;3.00;;;;;20.77;52.78;101413.50;5055132;28;45454;-69
2022/07/27 02:35:29;;;;;;;;;2.00;2.00;;;;;20.83;52.79;101429.25;5057982;28;45381;-68
2022/07/27 02:37:54;;;;;;;;;2.67;2.00;;;;;20.74;52.57;101409.13;5055168;28;45859;-68
2022/07/27 02:40:20;;;;;;;;;2.00;2.00;;;;;20.84;52.12;101418.56;5054759;28;45456;-69
2022/07/27 02:42:46;;;;;;;;;1.33;1.33;;;;;20.95;51.88;101421.78;5054513;28;46530;-68
2022/07/27 02:45:16;;;;;;;;;1.00;1.00;;;;;21.07;52.10;101433.88;5056314;28;45804;-68
2022/07/27 02:47:42;;;;;;;;;2.00;2.00;;;;;21.12;51.64;101431.06;5056476;28;45380;-68
2022/07/27 02:50:09;;;;;;;;;3.33;2.33;;;;;21.07;51.70;101430.31;5054120;28;45890;-69
2022/07/27 02:52:35;;;;;;;;;1.33;1.33;;;;;21.07;51.63;101425.88;5053933;28;45652;-68
2022/07/27 02:55:01;;;;;;;;;1.00;1.00;;;;;21.18;51.51;101429.06;5054257;28;45588;-69
2022/07/27 02:57:27;;;;;;;;;3.00;1.00;;;;;21.08;51.33;101408.97;5056078;28;45477;-68
2022/07/27 02:59:52;;;;;;;;;1.33;1.33;;;;;21.12;51.53;101415.94;5058964;28;45433;-68
2022/07/27 03:02:18;;;;;;;;;2.00;2.00;;;;;21.22;51.53;101429.84;5056222;28;45508;-68
2022/07/27 03:04:43;;;;;;;;;1.33;1.33;;;;;21.21;51.41;101428.09;5054301;28;45390;-69
2022/07/27 03:07:09;;;;;;;;;2.00;2.00;;;;;21.21;51.42;101427.22;5054349;28;45616;-69
2022/07/27 03:09:35;;;;;;;;;2.00;2.00;;;;;21.13;51.39;101416.81;5054387;28;45723;-69
2022/07/27 03:12:07;;;;;;;;;2.33;2.33;;;;;21.16;51.18;101422.03;5053888;28;45896;-69
2022/07/27 03:14:33;;;;;;;;;2.00;2.00;;;;;21.11;50.88;101408.84;5053806;28;45477;-68
2022/07/27 03:16:58;;;;;;;;;2.67;2.00;;;;;21.18;51.26;101423.72;5053870;28;45605;-68
2022/07/27 03:19:24;;;;;;;;;2.33;2.00;;;;;21.02;51.38;101413.59;5054636;28;45335;-68
2022/07/27 03:21:50;;;;;;;;;2.00;2.00;;;;;21.07;51.43;101423.22;5032954;28;47306;-69
2022/07/27 03:24:15;;;;;;;;;5.67;2.00;;;;;21.05;51.61;101422.38;5055770;28;45473;-69
2022/07/27 03:26:41;;;;;;;;;2.00;1.00;;;;;21.06;51.72;101420.59;5042810;28;45398;-69
2022/07/27 03:29:06;;;;;;;;;2.00;2.00;;;;;20.96;51.06;101404.88;5053945;28;45844;-68
2022/07/27 03:31:32;;;;;;;;;2.33;2.33;;;;;21.05;51.41;101418.84;5054258;28;46296;-68
2022/07/27 03:33:57;;;;;;;;;2.00;2.00;;;;;21.05;51.37;101427.72;5054209;28;45687;-68
2022/07/27 03:36:23;;;;;;;;;3.00;2.33;;;;;20.90;51.78;101425.50;5054041;28;45363;-69
2022/07/27 03:38:48;;;;;;;;;3.00;2.00;;;;;20.82;51.79;101415.09;5054136;28;45447;-69
2022/07/27 03:41:14;;;;;;;;;4.67;3.33;;;;;20.76;52.22;101417.91;5054658;28;45460;-69
2022/07/27 03:43:40;;;;;;;;;3.00;3.00;;;;;20.60;52.14;101420.16;5057964;28;45475;-69
2022/07/27 03:46:05;;;;;;;;;2.00;2.00;;;;;20.49;52.37;101424.88;5055207;28;45501;-69
2022/07/27 03:48:31;;;;;;;;;2.33;2.33;;;;;20.41;52.36;101418.94;5053493;28;45719;-69
2022/07/27 03:50:56;;;;;;;;;2.00;2.00;;;;;20.44;52.54;101418.81;5039447;28;47369;-69
2022/07/27 03:53:22;;;;;;;;;2.67;2.67;;;;;20.51;52.35;101425.72;5057139;28;45432;-69
2022/07/27 03:55:48;;;;;;;;;3.00;2.00;;;;;20.48;52.05;101405.41;5058002;28;45423;-69
2022/07/27 03:58:14;;;;;;;;;4.00;3.00;;;;;20.54;52.20;101417.63;5056604;28;45425;-68
2022/07/27 04:00:46;;;;;;;;;4.67;2.00;;;;;20.45;51.73;101400.13;5053343;28;46107;-68
2022/07/27 04:03:13;;;;;;;;;2.00;2.00;;;;;20.45;51.90;101391.28;5035507;28;45763;-68
2022/07/27 04:05:38;;;;;;;;;2.67;2.00;;;;;20.65;51.76;101420.91;5052027;28;45510;-68
2022/07/27 04:08:04;;;;;;;;;4.00;1.67;;;;;20.45;52.24;101402.78;5042802;28;45317;-69
2022/07/27 04:10:29;;;;;;;;;1.67;1.67;;;;;20.39;52.23;101412.78;5039702;28;45480;-69
2022/07/27 04:12:55;;;;;;;;;2.00;2.00;;;;;20.53;51.99;101419.44;5039348;28;45828;-68
2022/07/27 04:15:21;;;;;;;;;2.00;2.00;;;;;20.47;52.14;101424.91;5038638;28;45451;-71
2022/07/27 04:17:47;;;;;;;;;2.67;2.00;;;;;20.41;51.96;101408.28;5000436;28;45554;-70
2022/07/27 04:20:13;;;;;;;;;1.00;1.00;;;;;20.57;51.67;101422.91;5032886;28;46106;-69
2022/07/27 04:22:39;;;;;;;;;1.33;1.33;;;;;20.33;52.27;101409.38;5033522;28;45423;-71
2022/07/27 04:25:05;;;;;;;;;3.67;3.67;;;;;20.41;51.93;101402.97;5039316;28;45364;-68
2022/07/27 04:27:31;;;;;;;;;3.33;2.00;;;;;20.59;51.57;101423.72;5031790;28;45524;-70
2022/07/27 04:29:56;;;;;;;;;2.67;2.67;;;;;20.49;51.73;101422.22;5057224;28;45513;-69
2022/07/27 04:32:22;;;;;;;;;5.33;3.00;;;;;20.39;51.80;101418.09;5056743;28;45557;-68
2022/07/27 04:34:48;;;;;;;;;2.33;2.00;;;;;20.40;51.63;101425.13;5032392;28;45399;-69
2022/07/27 04:37:13;;;;;;;;;2.67;2.67;;;;;20.38;51.37;101408.34;5048289;28;45750;-70
2022/07/27 04:39:39;;;;;;;;;5.00;3.00;;;;;20.47;51.55;101429.38;5054705;28;45458;-67
2022/07/27 04:42:05;;;;;;;;;3.33;3.00;;;;;20.31;51.43;101412.97;5054963;28;45806;-69
2022/07/27 04:44:31;;;;;;;;;4.67;3.33;;;;;20.50;51.38;101431.94;5057959;28;45446;-69
2022/07/27 04:46:56;;;;;;;;;3.00;2.00;;;;;20.61;50.88;101421.91;5041306;28;45637;-71
2022/07/27 04:49:22;;;;;;;;;2.33;2.33;;;;;20.78;50.24;101424.06;5041453;28;46528;-68
2022/07/27 04:51:47;;;;;;;;;2.00;2.00;;;;;20.87;50.04;101417.59;5039939;28;45753;-71
2022/07/27 04:54:13;;;;;;;;;1.67;1.67;;;;;20.94;50.03;101412.03;5041767;28;45544;-69
2022/07/27 04:56:38;;;;;;;;;3.00;1.67;;;;;21.06;50.04;101425.91;5027802;28;45544;-70
2022/07/27 04:59:04;;;;;;;;;4.00;4.00;;;;;20.94;49.12;101419.16;5048174;28;45491;-70
2022/07/27 05:01:30;;;;;;;;;5.00;2.33;;;;;20.83;49.67;101422.13;5049547;28;45426;-70
2022/07/27 05:03:55;;;;;;;;;4.00;3.00;;;;;20.94;49.68;101425.34;5050392;28;45574;-71
2022/07/27 05:06:21;;;;;;;;;3.00;2.00;;;;;21.06;49.63;101425.91;5035028;28;45509;-72
2022/07/27 05:08:46;;;;;;;;;2.33;2.33;;;;;21.12;48.92;101420.41;5045716;28;46599;-70
2022/07/27 05:11:12;;;;;;;;;1.00;1.00;;;;;21.18;49.11;101425.53;5050550;28;45500;-72
2022/07/27 05:13:41;;;;;;;;;1.00;1.00;;;;;21.12;48.86;101425.75;5038345;28;45533;-73
2022/07/27 05:16:10;;;;;;;;;3.00;1.67;;;;;20.93;48.47;101412.13;5032696;28;45584;-70
2022/07/27 05:18:39;;;;;;;;;2.00;2.00;;;;;21.04;49.08;101428.59;5054149;28;45539;-71
2022/07/27 05:21:28;;;;;;;;;5.00;3.67;;;;;21.04;48.47;101433.06;5045938;28;45450;-70
2022/07/27 05:23:53;;;;;;;;;2.67;2.67;;;;;21.01;48.98;101436.69;5047227;28;45508;-69
2022/07/27 05:26:21;;;;;;;;;3.00;3.00;;;;;21.04;48.42;101439.25;5049716;28;45445;-70
2022/07/27 05:28:46;;;;;;;;;5.33;3.33;;;;;20.89;48.93;101418.44;5052895;28;45394;-70
2022/07/27 05:31:12;;;;;;;;;6.00;2.67;;;;;20.88;48.47;101438.88;5051675;28;45521;-71
2022/07/27 05:33:37;;;;;;;;;5.00;4.00;;;;;20.91;48.86;101441.44;5045356;28;45367;-70
2022/07/27 05:36:03;;;;;;;;;3.00;3.00;;;;;20.72;48.70;101421.59;5040169;28;45512;-71
2022/07/27 05:38:28;;;;;;;;;3.00;2.00;;;;;20.73;49.10;101431.31;5035903;28;45973;-71
2022/07/27 05:40:54;;;;;;;;;3.00;3.00;;;;;21.01;48.91;101452.69;5041626;28;45630;-71
2022/07/27 05:43:25;;;;;;;;;3.33;2.00;;;;;21.06;48.08;101418.78;5036753;28;45483;-70
2022/07/27 05:45:53;;;;;;;;;3.00;2.00;;;;;21.35;47.68;101447.16;5017883;28;45398;-69
2022/07/27 05:48:19;;;;;;;;;3.00;3.00;;;;;21.36;47.58;101422.28;5035851;28;46178;-69
2022/07/27 05:50:44;;;;;;;;;2.00;2.00;;;;;21.41;47.32;101408.84;5035044;28;45516;-71
2022/07/27 05:53:10;;;;;;;;;1.33;1.00;;;;;21.63;46.59;101437.47;5037600;28;45549;-70
2022/07/27 05:55:38;;;;;;;;;3.00;1.67;;;;;21.63;47.33;101450.78;5035299;28;45424;-69
2022/07/27 05:58:05;;;;;;;;;3.00;3.00;;;;;21.69;46.65;101437.25;5046169;28;45546;-70
2022/07/27 06:00:31;;;;;;;;;4.33;3.33;;;;;21.67;46.45;101445.31;5034602;28;45510;-70
2022/07/27 06:02:56;;;;;;;;;4.00;3.00;;;;;21.55;46.84;101449.25;5034802;28;45506;-70
2022/07/27 06:05:22;;;;;;;;;2.00;2.00;;;;;21.51;46.97;101458.25;5041201;28;45438;-72
2022/07/27 06:08:02;;;;;;;;;6.00;3.00;;;;;21.36;47.22;101432.09;5036213;28;45995;-70
2022/07/27 06:10:32;;;;;;;;;3.33;3.33;;;;;21.49;46.60;101433.44;5044223;28;45443;-70
2022/07/27 06:12:58;;;;;;;;;2.67;2.67;;;;;21.85;46.04;101458.94;5035039;28;45356;-69
2022/07/27 06:15:24;;;;;;;;;2.00;2.00;;;;;21.78;45.89;101435.16;5039464;28;45542;-70
2022/07/27 06:17:52;;;;;;;;;3.67;3.00;;;;;21.80;46.40;101457.28;5016881;28;45580;-69
2022/07/27 06:20:18;;;;;;;;;4.00;4.00;;;;;21.73;46.51;101454.88;5040981;28;45348;-70
2022/07/27 06:22:48;;;;;;;;;3.67;2.00;;;;;21.56;46.76;101460.78;5037692;28;45406;-70
2022/07/27 06:25:15;;;;;;;;;3.67;3.67;;;;;21.70;46.74;101466.53;5038903;28;45379;-70
2022/07/27 06:27:44;;;;;;;;;2.00;2.00;;;;;21.70;46.12;101423.00;5051636;28;46052;-69
2022/07/27 06:30:12;;;;;;;;;2.00;2.00;;;;;22.09;45.96;101465.22;5056867;28;45377;-70
2022/07/27 06:32:41;;;;;;;;;2.00;2.00;;;;;22.03;45.33;101434.31;5056724;28;45447;-69
2022/07/27 06:35:10;;;;;;;;;2.33;2.33;;;;;21.94;45.33;101430.16;5054946;28;45482;-70
2022/07/27 06:37:36;;;;;;;;;4.33;3.00;;;;;22.07;44.94;101467.97;5055293;28;45551;-70
2022/07/27 06:40:03;;;;;;;;;4.00;2.00;;;;;21.91;45.99;101467.63;5058460;28;45520;-70
2022/07/27 06:42:29;;;;;;;;;3.33;3.00;;;;;21.69;45.62;101437.25;5055201;28;45433;-71
2022/07/27 06:44:55;;;;;;;;;4.67;4.67;;;;;21.58;45.62;101433.16;5054993;28;45311;-70
2022/07/27 06:47:21;;;;;;;;;4.67;2.67;;;;;21.55;45.95;101433.25;5055681;28;46001;-71
2022/07/27 06:49:47;;;;;;;;;5.00;3.00;;;;;21.74;45.68;101457.53;5054151;28;45384;-70
2022/07/27 06:52:12;;;;;;;;;3.00;3.00;;;;;21.78;46.04;101468.94;5041228;28;45425;-70
2022/07/27 06:54:38;;;;;;;;;2.33;2.33;;;;;21.98;46.11;101463.81;5038345;28;45903;-70
2022/07/27 06:57:04;;;;;;;;;2.00;2.00;;;;;22.17;45.44;101468.53;5037178;28;45743;-70
2022/07/27 06:59:31;;;;;;;;;4.00;3.00;;;;;21.93;45.41;101427.56;5037335;28;45822;-70
2022/07/27 07:01:57;;;;;;;;;2.33;2.33;;;;;22.20;45.25;101449.75;5037506;28;45926;-70
2022/07/27 07:04:23;;;;;;;;;2.67;2.67;;;;;22.30;44.93;101458.31;5042106;28;45434;-69
2022/07/27 07:06:50;;;;;;;;;6.67;4.00;;;;;22.55;45.14;101467.19;5041925;28;45551;-71
2022/07/27 07:09:16;;;;;;;;;5.00;4.67;;;;;22.62;44.91;101466.03;5025875;28;45392;-69
2022/07/27 07:11:46;;;;;;;;;4.33;3.33;;;;;22.69;44.52;101468.50;5049594;28;45491;-70
2022/07/27 07:14:11;;;;;;;;;3.00;3.00;;;;;22.69;44.69;101477.38;5046158;28;45268;-70
2022/07/27 07:16:37;;;;;;;;;4.33;4.33;;;;;22.42;45.02;101463.22;5018802;28;47450;-69
2022/07/27 07:19:04;;;;;;;;;4.00;4.00;;;;;22.44;45.54;101477.38;5048027;28;45520;-69
2022/07/27 07:21:39;;;;;;;;;6.00;6.00;;;;;22.62;45.38;101473.19;5043028;28;45891;-71
2022/07/27 07:24:04;;;;;;;;;6.00;4.33;;;;;22.56;44.81;101460.91;5020331;28;45332;-70
2022/07/27 07:26:31;;;;;;;;;8.00;5.00;;;;;22.63;45.06;101472.25;5044960;28;45595;-70
2022/07/27 07:28:57;;;;;;;;;8.33;5.67;;;;;22.68;45.41;101475.63;5058187;28;45462;-69
2022/07/27 07:31:23;;;;;;;;;7.33;5.00;;;;;22.86;44.70;101477.59;5058078;28;45485;-71
2022/07/27 07:33:49;;;;;;;;;8.00;6.00;;;;;22.71;44.92;101435.47;5054623;28;45434;-69
2022/07/27 07:36:14;;;;;;;;;3.33;3.33;;;;;23.03;44.62;101473.47;5034910;28;46492;-70
2022/07/27 07:38:41;;;;;;;;;3.33;3.33;;;;;23.29;44.18;101470.63;5055278;28;46158;-72
2022/07/27 07:41:06;;;;;;;;;4.67;4.67;;;;;23.53;43.82;101478.63;5050364;28;45496;-70
2022/07/27 07:43:34;;;;;;;;;3.00;3.00;;;;;23.47;43.17;101431.63;5055783;28;45305;-70
2022/07/27 07:45:59;;;;;;;;;5.00;5.00;;;;;23.80;42.94;101481.13;5054187;28;46394;-67
2022/07/27 07:48:25;;;;;;;;;8.00;6.00;;;;;23.73;42.96;101482.28;5056622;28;45397;-68
2022/07/27 07:50:52;;;;;;;;;5.00;5.00;;;;;23.57;43.21;101471.34;5053239;28;45761;-67
2022/07/27 07:53:17;;;;;;;;;5.67;5.67;;;;;23.58;43.11;101475.75;5047659;28;45902;-68
2022/07/27 07:55:43;;;;;;;;;6.00;5.33;;;;;23.57;43.20;101472.22;5043011;28;45561;-68
2022/07/27 07:58:08;;;;;;;;;4.67;4.33;;;;;23.71;43.32;101472.53;5037595;28;45509;-67
2022/07/27 08:00:34;;;;;;;;;6.33;5.00;;;;;23.84;43.10;101464.88;5037517;28;45421;-69
2022/07/27 08:03:00;;;;;;;;;7.00;7.00;;;;;23.83;43.28;101464.97;5040004;28;45375;-68
2022/07/27 08:05:27;;;;;;;;;11.00;7.67;;;;;23.74;43.06;101465.34;5041350;28;46746;-70
2022/07/27 08:07:53;;;;;;;;;6.67;6.00;;;;;23.67;43.33;101465.56;5033425;28;45549;-67
2022/07/27 08:10:21;;;;;;;;;6.33;6.00;;;;;23.62;43.71;101461.34;5033011;28;45529;-68
2022/07/27 08:12:50;;;;;;;;;4.00;4.00;;;;;23.77;43.69;101466.06;5040844;28;45494;-67
2022/07/27 08:15:17;;;;;;;;;7.00;3.67;;;;;23.85;43.53;101449.72;5034618;28;46376;-67
2022/07/27 08:17:43;;;;;;;;;5.00;5.00;;;;;24.04;43.08;101455.16;5040820;28;45877;-68
2022/07/27 08:20:16;;;;;;;;;5.33;3.00;;;;;24.07;42.47;101447.84;5032783;28;45601;-68
2022/07/27 08:22:43;;;;;;;;;4.33;4.33;;;;;24.30;42.36;101457.56;5017789;28;45846;-68
2022/07/27 08:25:09;;;;;;;;;8.67;8.33;;;;;24.09;42.13;101459.38;5046041;28;46163;-69
2022/07/27 08:27:36;;;;;;;;;6.00;6.00;;;;;24.04;42.71;101460.50;5052629;28;45879;-67
2022/07/27 08:30:03;;;;;;;;;4.00;4.00;;;;;24.19;42.00;101461.66;5034833;28;45489;-68
2022/07/27 08:32:29;;;;;;;;;12.67;10.00;;;;;24.01;42.63;101448.09;5053891;28;45444;-68
2022/07/27 08:34:55;;;;;;;;;8.00;8.00;;;;;24.06;42.53;101464.88;5055950;28;46428;-67
2022/07/27 08:37:21;;;;;;;;;8.67;8.67;;;;;23.86;42.71;101463.00;5052903;28;45473;-67
2022/07/27 08:39:46;;;;;;;;;10.67;8.33;;;;;23.87;43.49;101461.19;5052464;28;45540;-68
2022/07/27 08:42:12;;;;;;;;;12.67;12.33;;;;;23.84;42.91;101456.84;5053070;28;45546;-68
2022/07/27 08:44:41;;;;;;;;;10.00;10.00;;;;;23.84;43.40;101454.19;5048109;28;45696;-70
2022/07/27 08:47:12;;;;;;;;;6.33;6.33;;;;;24.05;43.20;101457.75;5041907;28;45454;-71
2022/07/27 08:49:40;;;;;;;;;5.67;5.67;;;;;24.26;42.34;101449.75;5036704;28;45810;-69
2022/07/27 08:52:11;;;;;;;;;5.00;5.00;;;;;24.42;41.82;101440.09;5017366;28;45387;-69
2022/07/27 08:54:40;;;;;;;;;7.00;5.33;;;;;24.66;41.54;101448.00;5035805;28;46424;-70
2022/07/27 08:57:07;;;;;;;;;5.67;5.67;;;;;24.83;41.22;101466.81;5032948;28;45393;-68
2022/07/27 08:59:33;;;;;;;;;6.33;5.00;;;;;24.89;40.77;101453.16;5032799;28;45753;-68
2022/07/27 09:01:58;;;;;;;;;8.67;8.00;;;;;24.86;40.45;101444.38;5035093;28;45525;-68
2022/07/27 09:04:25;;;;;;;;;10.33;8.67;;;;;24.64;40.82;101441.84;5045643;28;45783;-69
2022/07/27 09:06:51;;;;;;;;;7.00;7.00;;;;;24.68;41.02;101452.34;5034178;28;45677;-68
2022/07/27 09:09:25;;;;;;;;;6.00;6.00;;;;;24.82;41.05;101459.75;5035211;28;45299;-68
2022/07/27 09:12:10;;;;;;;;;5.33;5.33;;;;;25.02;40.90;101460.63;5016347;28;45492;-70
2022/07/27 09:14:38;;;;;;;;;4.00;4.00;;;;;24.85;40.08;101413.19;5036455;28;46243;-69
2022/07/27 09:17:25;;;;;;;;;7.00;6.00;;;;;25.14;40.31;101457.34;5049691;28;45853;-67
2022/07/27 09:19:54;;;;;;;;;11.00;8.00;;;;;25.06;39.37;101457.72;5055340;28;46016;-68
2022/07/27 09:22:57;;;;;;;;;6.33;6.00;;;;;24.97;39.48;101452.78;5043819;28;45561;-68
2022/07/27 09:25:29;;;;;;;;;6.67;6.67;;;;;24.65;40.31;101425.66;5049017;28;45377;-69
2022/07/27 09:27:56;;;;;;;;;7.00;7.00;;;;;24.72;40.68;101453.91;5042945;28;45537;-68
2022/07/27 09:30:23;;;;;;;;;7.00;6.67;;;;;24.69;40.81;101453.19;5062637;28;45801;-71
2022/07/27 09:33:01;;;;;;;;;10.00;8.33;;;;;24.71;39.80;101457.53;5060218;28;45480;-69
2022/07/27 09:35:35;;;;;;;;;8.00;8.00;;;;;24.60;40.41;101450.94;5042631;28;45866;-69
2022/07/27 09:38:20;;;;;;;;;5.67;5.67;;;;;24.81;40.23;101457.97;5062284;28;45372;-69
2022/07/27 09:40:56;;;;;;;;;5.33;3.67;;;;;25.08;39.28;101454.94;5057448;28;45708;-68
2022/07/27 09:43:22;;;;;;;;;5.00;4.00;;;;;25.26;39.48;101458.59;5056564;28;45843;-68
2022/07/27 09:45:49;;;;;;;;;3.33;3.00;;;;;25.41;39.34;101447.13;5056250;28;46485;-69
2022/07/27 09:48:19;;;;;;;;;5.00;4.67;;;;;25.29;38.14;101420.91;5047134;28;45447;-69
2022/07/27 09:51:06;;;;;;;;;1.00;1.00;;;;;25.58;38.12;101454.38;5050177;28;45411;-69
2022/07/27 09:53:33;;;;;;;;;8.67;6.67;;;;;25.47;37.73;101451.34;5056308;28;45468;-68
2022/07/27 09:56:15;;;;;;;;;6.00;5.33;;;;;25.16;38.04;101453.66;5055789;28;45597;-67
2022/07/27 09:58:55;;;;;;;;;9.00;6.00;;;;;24.93;38.66;101443.16;5056342;28;45447;-69
2022/07/27 10:01:24;;;;;;;;;6.33;6.33;;;;;24.86;39.16;101439.88;5035809;28;45455;-69
2022/07/27 10:04:01;;;;;;;;;8.67;6.67;;;;;24.76;38.71;101441.25;5055491;28;45415;-67
2022/07/27 10:06:27;;;;;;;;;6.00;6.00;;;;;24.77;38.60;101445.66;5060649;28;45435;-68
2022/07/27 10:08:55;;;;;;;;;7.00;6.00;;;;;24.51;38.41;101428.09;5039652;28;45446;-68
2022/07/27 10:11:22;;;;;;;;;7.67;6.00;;;;;24.49;38.76;101432.69;5055700;28;45430;-67
2022/07/27 10:13:49;;;;;;;;;6.00;5.00;;;;;24.68;38.47;101441.63;5055713;28;45366;-68
2022/07/27 10:16:27;;;;;;;;;7.00;6.00;;;;;24.59;38.23;101438.50;5055604;28;45736;-69
2022/07/27 10:19:05;;;;;;;;;7.67;6.00;;;;;24.49;38.71;101427.34;5055255;28;45531;-69
2022/07/27 10:21:32;;;;;;;;;5.33;5.33;;;;;24.58;38.48;101436.75;5039073;28;45513;-68
2022/07/27 10:24:04;;;;;;;;;6.00;4.67;;;;;24.90;37.95;101437.94;5056654;28;45574;-68
2022/07/27 10:26:34;;;;;;;;;5.67;5.67;;;;;25.05;36.87;101436.34;5041103;28;45700;-67
2022/07/27 10:29:13;;;;;;;;;4.33;4.33;;;;;25.18;37.24;101430.38;5055346;28;45485;-69
2022/07/27 10:31:56;;;;;;;;;6.33;6.33;;;;;25.21;36.66;101421.31;5055678;28;45390;-68
2022/07/27 10:34:42;;;;;;;;;5.00;5.00;;;;;25.17;37.03;101431.28;5055258;28;45342;-68
2022/07/27 10:37:14;;;;;;;;;6.00;5.00;;;;;25.19;36.44;101423.19;5037101;28;46195;-69
2022/07/27 10:39:50;;;;;;;;;4.33;3.67;;;;;25.47;36.61;101428.06;5051436;28;45411;-69
2022/07/27 10:42:17;;;;;;;;;5.00;5.00;;;;;25.38;36.20;101426.69;5054818;28;45445;-69
2022/07/27 10:44:55;;;;;;;;;8.00;6.00;;;;;25.17;35.93;101417.88;5055159;28;45626;-69
2022/07/27 10:47:35;;;;;;;;;5.33;5.33;;;;;24.98;36.47;101423.22;5054998;28;46057;-68
2022/07/27 10:50:15;;;;;;;;;5.33;4.67;;;;;24.96;36.81;101421.56;5054752;28;45540;-70
2022/07/27 10:52:57;;;;;;;;;4.67;3.00;;;;;25.21;36.63;101415.94;5059091;28;45418;-69
2022/07/27 10:55:29;;;;;;;;;5.00;4.00;;;;;25.38;36.57;101412.44;5056208;28;46175;-69
2022/07/27 10:58:15;;;;;;;;;5.33;4.00;;;;;25.35;35.38;101412.59;5054591;28;46684;-69
2022/07/27 11:00:49;;;;;;;;;4.00;4.00;;;;;25.46;35.67;101409.34;5012246;28;45515;-68
2022/07/27 11:03:25;;;;;;;;;6.00;5.67;;;;;25.74;35.22;101407.03;5054981;28;45489;-68
2022/07/27 11:05:57;;;;;;;;;5.67;5.67;;;;;25.84;34.75;101401.19;5054673;28;45428;-68
2022/07/27 11:08:29;;;;;;;;;5.00;4.67;;;;;25.95;34.94;101383.63;5053906;28;46123;-68
2022/07/27 11:10:55;;;;;;;;;4.67;4.33;;;;;26.24;34.89;101391.94;5054513;28;45592;-68
2022/07/27 11:13:27;;;;;;;;;5.00;4.50;;;;;26.34;34.30;101378.88;5054345;28;45414;-68
2022/07/27 11:16:00;;;;;;;;;6.00;5.00;;;;;26.49;34.46;101387.97;5035271;28;45837;-68
2022/07/27 11:18:27;;;;;;;;;4.00;4.00;;;;;26.52;32.99;101377.91;5052731;28;45401;-69
2022/07/27 11:21:17;;;;;;;;;4.67;2.33;;;;;26.69;33.16;101377.00;5058303;28;45454;-68
2022/07/27 11:23:45;;;;;;;;;3.00;3.00;;;;;26.90;32.46;101377.63;5054296;28;45348;-69
2022/07/27 11:26:11;;;;;;;;;4.00;4.00;;;;;27.11;31.75;101374.69;5040384;28;45300;-69
2022/07/27 11:28:37;;;;;;;;;3.00;3.00;;;;;27.03;31.34;101372.44;5056465;28;45331;-69
2022/07/27 11:31:04;;;;;;;;;2.75;2.75;;;;;27.20;32.00;101374.19;5058469;28;45493;-69
2022/07/27 11:33:29;;;;;;;;;5.25;4.00;;;;;27.34;31.62;101373.38;5053806;28;45359;-68